Time;durP1;ratioP1;P1;durP2;ratioP2;P2;SDS_P1;SDS_P2;PMS_P1;PMS_P2;Temp;Humidity;BMP_temperature;BMP_pressure;BME280_temperature;BME280_humidity;BME280_pressure;Samples;Min_cycle;Max_cycle;Signal;HPM_P1;HPM_P2
2022/01/21 00:00:24;;;;;;;0.60;0.60;;;;;;;-0.25;74.95;98122.78;29375;212;63005;-55
2022/01/21 00:00:56;;;;;;;0.60;0.60;;;;;;;-0.26;74.77;98115.78;29375;189;63009;-71
2022/01/21 00:01:28;;;;;;;0.68;0.68;;;;;;;-0.25;74.59;98112.09;29374;275;64005;-65
2022/01/21 00:01:59;;;;;;;0.60;0.60;;;;;;;-0.28;74.67;98117.00;29376;242;63009;-61
2022/01/21 00:02:31;;;;;;;0.60;0.60;;;;;;;-0.29;74.79;98116.16;29374;252;64004;-76
2022/01/21 00:03:02;;;;;;;0.60;0.60;;;;;;;-0.32;75.02;98119.22;29376;202;63009;-68
2022/01/21 00:03:35;;;;;;;0.70;0.70;;;;;;;-0.29;74.91;98113.50;29376;242;63004;-72
2022/01/21 00:04:08;;;;;;;0.70;0.70;;;;;;;-0.28;74.62;98117.81;29376;229;63009;-62
2022/01/21 00:04:39;;;;;;;0.60;0.60;;;;;;;-0.23;74.75;98119.91;29376;204;63004;-70
2022/01/21 00:05:11;;;;;;;0.60;0.60;;;;;;;-0.24;74.29;98118.25;29376;218;63009;-64
2022/01/21 00:05:43;;;;;;;0.70;0.70;;;;;;;-0.29;74.79;98116.16;29376;229;63005;-68
2022/01/21 00:06:18;;;;;;;0.70;0.70;;;;;;;-0.30;74.75;98114.53;29376;252;63009;-80
2022/01/21 00:06:49;;;;;;;0.60;0.60;;;;;;;-0.28;74.84;98117.81;29376;204;63005;-69
2022/01/21 00:07:21;;;;;;;0.60;0.60;;;;;;;-0.28;74.63;98117.81;29374;204;64009;-67
2022/01/21 00:07:53;;;;;;;0.60;0.60;;;;;;;-0.29;74.93;98116.16;29375;248;63005;-68
2022/01/21 00:08:24;;;;;;;0.60;0.60;;;;;;;-0.31;74.61;98115.53;29376;219;63009;-63
2022/01/21 00:08:55;;;;;;;0.60;0.60;;;;;;;-0.32;74.95;98116.56;29374;211;64005;-76
2022/01/21 00:09:27;;;;;;;0.60;0.60;;;;;;;-0.32;74.66;98111.22;29376;216;63009;-75
2022/01/21 00:09:58;;;;;;;0.60;0.60;;;;;;;-0.32;74.97;98121.06;29376;232;63008;-67
2022/01/21 00:10:29;;;;;;;0.60;0.60;;;;;;;-0.32;74.57;98118.41;29376;243;63009;-71
2022/01/21 00:11:01;;;;;;;0.60;0.60;;;;;;;-0.33;74.87;98114.91;29376;218;63004;-68
2022/01/21 00:11:34;;;;;;;0.65;0.65;;;;;;;-0.33;74.70;98117.56;29376;220;63024;-70
2022/01/21 00:12:09;;;;;;;0.60;0.60;;;;;;;-0.32;74.77;98118.41;29376;202;63015;-62
2022/01/21 00:12:43;;;;;;;0.60;0.60;;;;;;;-0.35;74.52;98112.44;29376;212;63009;-76
2022/01/21 00:13:33;;;;;;;0.60;0.60;;;;;;;-0.36;75.00;98115.31;29376;200;63007;-64
2022/01/21 00:14:11;;;;;;;0.90;0.90;;;;;;;-0.35;74.58;98114.31;29374;263;64009;-77
2022/01/21 00:14:43;;;;;;;0.60;0.60;;;;;;;-0.34;74.61;98116.75;29376;229;63005;-58
2022/01/21 00:15:14;;;;;;;0.60;0.60;;;;;;;-0.34;74.38;98113.25;29375;211;63009;-65
2022/01/21 00:15:47;;;;;;;0.70;0.70;;;;;;;-0.33;74.63;98117.56;29375;228;63005;-76
2022/01/21 00:16:21;;;;;;;0.60;0.60;;;;;;;-0.34;74.43;98113.25;29375;232;63009;-64
2022/01/21 00:16:53;;;;;;;0.75;0.75;;;;;;;-0.35;74.54;98114.31;29375;211;63004;-66
2022/01/21 00:17:24;;;;;;;0.68;0.68;;;;;;;-0.34;74.50;98119.41;29375;367;63016;-71
2022/01/21 00:17:55;;;;;;;0.93;0.80;;;;;;;-0.35;74.49;98117.75;29375;212;63004;-68
2022/01/21 00:18:27;;;;;;;0.60;0.60;;;;;;;-0.36;74.78;98126.81;29375;214;63009;-63
2022/01/21 00:19:13;;;;;;;0.60;0.60;;;;;;;-0.36;74.56;98113.47;29376;277;63004;-71
2022/01/21 00:19:47;;;;;;;0.70;0.70;;;;;;;-0.40;74.76;98119.37;29373;222;64008;-60
2022/01/21 00:30:18;;;;;;;0.80;0.80;;;;;;;-0.42;75.05;98129.41;29373;223;64005;-65
2022/01/21 00:30:50;;;;;;;0.75;0.75;;;;;;;-0.43;75.00;98130.44;29375;206;63009;-63
2022/01/21 00:31:22;;;;;;;0.93;0.93;;;;;;;-0.46;75.07;98123.66;29375;205;63005;-75
2022/01/21 00:31:53;;;;;;;0.70;0.70;;;;;;;-0.43;74.68;98127.78;29375;215;63009;-63
2022/01/21 00:32:24;;;;;;;0.70;0.70;;;;;;;-0.47;75.13;98123.84;29375;222;63004;-63
2022/01/21 00:32:56;;;;;;;0.70;0.70;;;;;;;-0.47;74.64;98124.66;29375;225;63009;-61
2022/01/21 00:33:27;;;;;;;0.80;0.80;;;;;;;-0.46;74.98;98125.50;29375;233;63004;-59
2022/01/21 00:33:58;;;;;;;0.60;0.60;;;;;;;-0.49;75.02;98124.03;29375;211;63009;-73
2022/01/21 00:34:30;;;;;;;0.60;0.60;;;;;;;-0.50;75.18;98124.22;29373;259;64004;-68
2022/01/21 00:35:01;;;;;;;0.60;0.60;;;;;;;-0.49;75.07;98115.22;29373;243;64008;-62
2022/01/21 00:35:32;;;;;;;2.50;1.70;;;;;;;-0.47;74.81;98118.50;29375;207;63005;-75
2022/01/21 00:36:05;;;;;;;0.70;0.70;;;;;;;-0.49;74.77;98126.69;29375;203;63009;-67
2022/01/21 00:36:36;;;;;;;0.70;0.70;;;;;;;-0.47;75.17;98119.34;29375;210;63005;-70
2022/01/21 00:37:08;;;;;;;0.60;0.60;;;;;;;-0.45;74.79;98127.13;29375;254;63009;-70
2022/01/21 00:37:40;;;;;;;0.70;0.70;;;;;;;-0.46;75.00;98125.50;29375;211;63005;-68
2022/01/21 00:38:13;;;;;;;0.70;0.70;;;;;;;-0.49;75.01;98126.69;29375;218;63009;-75
2022/01/21 00:38:44;;;;;;;0.65;0.65;;;;;;;-0.52;75.17;98121.75;29375;265;63004;-79
2022/01/21 00:39:19;;;;;;;0.70;0.70;;;;;;;-0.49;75.36;98120.53;29375;232;63009;-57
2022/01/21 00:39:57;;;;;;;0.70;0.70;;;;;;;-0.46;74.88;98125.50;29375;224;63004;-71
2022/01/21 00:40:32;;;;;;;0.60;0.60;;;;;;;-0.44;74.79;98118.94;29373;240;64009;-69
2022/01/21 00:41:06;;;;;;;0.60;0.60;;;;;;;-0.43;74.83;98114.44;29375;211;63004;-65
2022/01/21 00:41:44;;;;;;;1.90;1.87;;;;;;;-0.40;74.39;98119.37;29375;251;63009;-62
2022/01/21 00:43:58;;;;;;;0.70;0.70;;;;;;;-0.43;74.57;98119.78;29418;283;63005;-63
2022/01/21 00:44:29;;;;;;;0.60;0.60;;;;;;;-0.41;74.42;98123.06;29396;220;63009;-64
2022/01/21 00:45:01;;;;;;;0.70;0.70;;;;;;;-0.40;74.44;98116.72;29375;216;63005;-68
2022/01/21 00:45:33;;;;;;;0.60;0.60;;;;;;;-0.40;74.32;98125.53;29373;225;64009;-58
2022/01/21 00:46:04;;;;;;;0.60;0.60;;;;;;;-0.44;74.71;98126.94;29375;237;63005;-72
2022/01/21 00:46:35;;;;;;;0.70;0.70;;;;;;;-0.40;74.32;98127.38;29375;322;63009;-67
2022/01/21 00:47:07;;;;;;;0.70;0.70;;;;;;;-0.38;74.49;98134.19;29375;216;63004;-65
2022/01/21 00:47:40;;;;;;;0.75;0.75;;;;;;;-0.32;73.88;98137.88;29375;222;63009;-63
2022/01/21 00:48:12;;;;;;;0.60;0.60;;;;;;;-0.33;74.21;98128.25;29375;207;63004;-69
2022/01/21 00:48:43;;;;;;;0.60;0.60;;;;;;;-0.33;73.96;98130.91;29373;234;64008;-62
2022/01/21 00:49:15;;;;;;;0.75;0.75;;;;;;;-0.31;74.08;98126.22;29376;199;63004;-63
2022/01/21 00:49:46;;;;;;;0.60;0.60;;;;;;;-0.35;73.88;98127.63;29375;212;63009;-79
2022/01/21 00:50:18;;;;;;;0.60;0.60;;;;;;;-0.37;74.54;98124.34;29375;214;63005;-54
2022/01/21 00:50:49;;;;;;;0.60;0.60;;;;;;;-0.36;74.11;98123.31;29375;222;63016;-63
2022/01/21 00:51:20;;;;;;;0.70;0.70;;;;;;;-0.34;74.29;98124.75;29375;213;63005;-66
2022/01/21 00:51:51;;;;;;;0.90;0.90;;;;;;;-0.34;74.03;98123.91;29375;214;63009;-66
2022/01/21 00:52:22;;;;;;;0.70;0.70;;;;;;;-0.34;74.10;98130.09;29375;235;63005;-68
2022/01/21 00:52:53;;;;;;;3.50;1.30;;;;;;;-0.34;74.03;98121.25;29375;288;63009;-65
2022/01/21 00:53:24;;;;;;;0.60;0.60;;;;;;;-0.33;74.02;98120.25;29373;224;64005;-66
2022/01/21 00:53:56;;;;;;;0.60;0.60;;;;;;;-0.34;74.17;98123.91;29375;202;63009;-58
2022/01/21 00:54:27;;;;;;;0.70;0.70;;;;;;;-0.34;74.44;98124.75;29375;229;63008;-69
2022/01/21 00:54:58;;;;;;;0.60;0.60;;;;;;;-0.35;74.41;98122.31;29375;216;63009;-68
2022/01/21 00:55:29;;;;;;;0.70;0.70;;;;;;;-0.34;74.29;98116.75;29375;224;63004;-67
2022/01/21 00:56:01;;;;;;;0.70;0.70;;;;;;;-0.32;74.29;98115.72;29375;202;63009;-70
2022/01/21 00:56:32;;;;;;;0.70;0.70;;;;;;;-0.34;74.36;98126.59;29375;205;63006;-71
2022/01/21 00:57:04;;;;;;;0.70;0.70;;;;;;;-0.33;74.23;98125.56;29375;242;63009;-65
2022/01/21 00:57:36;;;;;;;0.70;0.70;;;;;;;-0.36;74.22;98120.66;29373;270;64005;-78
2022/01/21 00:58:08;;;;;;;0.80;0.80;;;;;;;-0.37;73.96;98119.84;29375;198;63009;-61
2022/01/21 00:58:39;;;;;;;0.70;0.70;;;;;;;-0.36;74.59;98126.00;29375;301;63005;-66
2022/01/21 00:59:10;;;;;;;0.70;0.70;;;;;;;-0.37;74.19;98122.50;29375;261;63009;-72
2022/01/21 00:59:41;;;;;;;0.70;0.70;;;;;;;-0.39;74.49;98123.72;29375;242;63005;-64
2022/01/21 01:00:14;;;;;;;0.70;0.70;;;;;;;-0.36;74.47;98120.66;29375;238;63009;-75
2022/01/21 01:00:46;;;;;;;0.60;0.60;;;;;;;-0.36;74.25;98118.81;29373;227;64005;-72
2022/01/21 01:01:17;;;;;;;0.60;0.60;;;;;;;-0.35;74.29;98122.31;29373;219;64009;-70
2022/01/21 01:01:48;;;;;;;0.60;0.60;;;;;;;-0.31;74.33;98128.03;29373;226;64004;-62
2022/01/21 01:02:20;;;;;;;0.60;0.60;;;;;;;-0.34;74.13;98126.59;29375;249;63009;-70
2022/01/21 01:02:52;;;;;;;0.70;0.70;;;;;;;-0.34;74.23;98121.25;29375;221;63004;-63
2022/01/21 01:03:24;;;;;;;0.60;0.60;;;;;;;-0.34;74.24;98129.25;29375;210;63013;-70
2022/01/21 01:03:58;;;;;;;0.70;0.70;;;;;;;-0.36;74.41;98128.66;29375;222;63004;-77
2022/01/21 01:04:29;;;;;;;0.60;0.60;;;;;;;-0.36;74.65;98128.66;29375;223;63008;-71
2022/01/21 01:05:01;;;;;;;0.60;0.60;;;;;;;-0.37;74.78;98129.66;29375;225;63005;-71
2022/01/21 01:05:32;;;;;;;0.60;0.60;;;;;;;-0.34;74.30;98129.25;29375;208;63009;-61
2022/01/21 01:06:04;;;;;;;0.70;0.70;;;;;;;-0.32;74.40;98132.56;29375;205;63005;-72
2022/01/21 01:06:35;;;;;;;0.70;0.70;;;;;;;-0.33;74.17;98138.91;29372;239;64009;-70
2022/01/21 01:07:07;;;;;;;0.60;0.60;;;;;;;-0.33;74.41;98136.25;29375;204;63005;-62
2022/01/21 01:07:39;;;;;;;0.60;0.60;;;;;;;-0.32;74.20;98139.72;29375;207;63009;-63
2022/01/21 01:08:10;;;;;;;0.60;0.60;;;;;;;-0.31;74.45;98134.22;29373;221;63004;-71
2022/01/21 01:08:44;;;;;;;0.70;0.70;;;;;;;-0.34;74.35;98139.94;29373;196;63009;-69
2022/01/21 01:09:17;;;;;;;0.70;0.70;;;;;;;-0.34;74.59;98139.94;29372;237;64004;-77
2022/01/21 01:09:52;;;;;;;0.60;0.60;;;;;;;-0.34;74.37;98146.09;29373;247;63009;-71
2022/01/21 01:10:38;;;;;;;0.70;0.70;;;;;;;-0.31;74.42;98141.37;29373;263;63004;-68
2022/01/21 01:11:18;;;;;;;0.70;0.70;;;;;;;-0.31;74.30;98139.53;29373;226;63027;-65
2022/01/21 01:12:59;;;;;;;0.70;0.70;;;;;;;-0.36;74.58;98142.00;29416;245;63020;-74
2022/01/21 01:19:57;;;;;;;0.70;0.70;;;;;;;-0.34;74.38;98137.25;29373;305;63009;-67
2022/01/21 01:20:28;;;;;;;0.80;0.80;;;;;;;-0.32;74.43;98143.22;29373;250;63005;-71
2022/01/21 01:20:59;;;;;;;0.60;0.60;;;;;;;-0.33;74.19;98144.25;29373;286;63009;-64
2022/01/21 01:21:32;;;;;;;0.60;0.60;;;;;;;-0.33;74.73;98144.25;29373;203;63005;-67
2022/01/21 01:22:04;;;;;;;0.70;0.70;;;;;;;-0.38;74.56;98142.19;29371;212;64024;-72
2022/01/21 01:22:50;;;;;;;0.77;0.77;;;;;;;-0.37;74.93;98145.66;29373;225;63005;-62
2022/01/21 01:23:28;;;;;;;0.70;0.70;;;;;;;-0.37;74.66;98140.34;29373;203;63009;-68
2022/01/21 01:27:36;;;;;;;0.70;0.70;;;;;;;-0.31;74.49;98152.88;29373;280;63005;-65
2022/01/21 01:28:08;;;;;;;0.68;0.68;;;;;;;-0.30;74.32;98154.53;29373;230;63009;-75
2022/01/21 01:28:39;;;;;;;0.60;0.60;;;;;;;-0.32;74.41;98153.91;29373;244;63005;-72
2022/01/21 01:29:11;;;;;;;1.65;1.65;;;;;;;-0.32;74.33;98150.41;29373;229;63009;-64
2022/01/21 01:29:42;;;;;;;0.80;0.80;;;;;;;-0.32;74.32;98151.22;29373;250;63005;-70
2022/01/21 01:30:15;;;;;;;0.60;0.60;;;;;;;-0.32;74.32;98153.91;29373;222;63009;-77
2022/01/21 01:30:47;;;;;;;0.80;0.80;;;;;;;-0.35;74.63;98149.78;29371;222;64004;-74
2022/01/21 01:31:18;;;;;;;0.60;0.60;;;;;;;-0.34;74.43;98156.75;29372;273;63009;-64
2022/01/21 01:31:53;;;;;;;0.70;0.70;;;;;;;-0.34;74.64;98155.94;29373;242;63004;-68
2022/01/21 01:32:27;;;;;;;0.70;0.70;;;;;;;-0.35;74.88;98159.66;29371;250;64009;-68
2022/01/21 01:33:00;;;;;;;0.70;0.70;;;;;;;-0.35;74.89;98155.09;29373;246;63004;-68
2022/01/21 01:33:40;;;;;;;0.60;0.60;;;;;;;-0.33;74.64;98168.25;29373;223;63008;-65
2022/01/21 01:34:12;;;;;;;0.70;0.70;;;;;;;-0.30;74.69;98156.37;29373;199;63005;-78
2022/01/21 01:34:43;;;;;;;0.70;0.70;;;;;;;-0.34;74.70;98161.25;29373;227;63009;-78
2022/01/21 01:35:17;;;;;;;0.62;0.62;;;;;;;-0.31;74.86;98160.06;29373;227;63005;-69
2022/01/21 01:35:52;;;;;;;0.60;0.60;;;;;;;-0.30;74.54;98159.03;29371;224;64009;-63
2022/01/21 01:36:23;;;;;;;0.70;0.70;;;;;;;-0.29;74.48;98153.50;29373;210;63005;-67
2022/01/21 01:36:58;;;;;;;0.60;0.60;;;;;;;-0.32;74.62;98159.22;29373;251;63009;-63
2022/01/21 01:38:51;;;;;;;0.70;0.70;;;;;;;-0.41;75.09;98160.41;29395;212;63009;-68
2022/01/21 01:39:42;;;;;;;0.70;0.70;;;;;;;-0.39;74.95;98159.19;29393;233;64004;-65
2022/01/21 01:40:34;;;;;;;0.70;0.70;;;;;;;-0.33;74.67;98157.56;29373;372;63009;-69
2022/01/21 01:41:10;;;;;;;0.70;0.70;;;;;;;-0.28;74.33;98160.50;29373;348;63004;-64
2022/01/21 01:41:49;;;;;;;0.60;0.60;;;;;;;-0.31;74.42;98150.22;29373;217;63009;-71
2022/01/21 01:50:14;;;;;;;0.70;0.70;;;;;;;-0.41;75.52;98160.41;29400;332;63000;-59
2022/01/21 01:50:47;;;;;;;0.70;0.70;;;;;;;-0.38;75.16;98154.69;29373;230;63009;-70
2022/01/21 01:51:19;;;;;;;0.60;0.60;;;;;;;-0.36;74.93;98158.00;29373;225;63005;-66
2022/01/21 01:51:51;;;;;;;0.90;0.90;;;;;;;-0.34;74.92;98151.41;29373;270;63009;-66
2022/01/21 01:52:22;;;;;;;0.70;0.70;;;;;;;-0.32;74.93;98153.06;29373;212;63005;-61
2022/01/21 01:52:53;;;;;;;1.50;1.50;;;;;;;-0.30;74.58;98159.84;29373;227;63009;-71
2022/01/21 01:53:39;;;;;;;0.60;0.60;;;;;;;-0.29;74.27;98148.19;29373;225;63004;-64
2022/01/21 01:54:13;;;;;;;0.60;0.60;;;;;;;-0.31;74.40;98144.88;29371;209;64009;-67
2022/01/21 01:54:49;;;;;;;0.60;0.60;;;;;;;-0.31;74.50;98146.72;29373;230;63004;-67
2022/01/21 01:55:21;;;;;;;0.60;0.60;;;;;;;-0.31;74.74;98141.37;29371;212;64008;-63
2022/01/21 01:55:54;;;;;;;0.60;0.60;;;;;;;-0.30;74.46;98138.53;29373;286;63004;-63
2022/01/21 01:56:30;;;;;;;0.60;0.60;;;;;;;-0.29;74.60;98140.19;29373;218;63008;-67
2022/01/21 01:57:04;;;;;;;0.60;0.60;;;;;;;-0.30;74.36;98141.19;29373;236;63005;-66
2022/01/21 01:57:35;;;;;;;0.60;0.60;;;;;;;-0.30;74.74;98146.53;29371;218;64009;-73
2022/01/21 01:58:06;;;;;;;0.70;0.70;;;;;;;-0.31;74.41;98152.88;29373;225;63005;-67
2022/01/21 01:58:39;;;;;;;0.60;0.60;;;;;;;-0.34;74.84;98151.41;29373;240;63009;-70
2022/01/21 01:59:11;;;;;;;0.62;0.62;;;;;;;-0.33;74.49;98141.56;29373;257;63005;-74
2022/01/21 01:59:42;;;;;;;1.05;1.02;;;;;;;-0.35;74.93;98143.63;29371;203;64009;-68
2022/01/21 02:00:15;;;;;;;0.60;0.60;;;;;;;-0.39;74.84;98145.88;29373;198;63004;-71
2022/01/21 02:00:46;;;;;;;0.60;0.60;;;;;;;-0.35;75.14;98143.63;29373;230;63009;-67
2022/01/21 02:01:17;;;;;;;0.85;0.85;;;;;;;-0.33;75.05;98146.91;29371;215;64004;-67
2022/01/21 02:02:01;;;;;;;0.70;0.70;;;;;;;-0.31;74.91;98142.22;29372;203;63009;-61
2022/01/21 02:02:32;;;;;;;0.90;0.90;;;;;;;-0.30;74.68;98141.19;29373;250;63004;-71
2022/01/21 02:03:08;;;;;;;0.60;0.60;;;;;;;-0.32;74.99;98148.56;29371;226;64008;-77
2022/01/21 02:03:43;;;;;;;0.60;0.60;;;;;;;-0.34;75.08;98147.94;29373;215;63005;-76
2022/01/21 02:04:14;;;;;;;0.60;0.60;;;;;;;-0.35;74.90;98138.31;29373;251;63009;-75
2022/01/21 02:04:46;;;;;;;0.75;0.75;;;;;;;-0.34;75.11;98139.94;29373;261;63005;-80
2022/01/21 02:05:18;;;;;;;0.60;0.60;;;;;;;-0.36;75.26;98147.31;29373;237;63009;-60
2022/01/21 02:05:49;;;;;;;0.60;0.60;;;;;;;-0.36;74.98;98152.66;29373;206;63005;-71
2022/01/21 02:06:21;;;;;;;0.60;0.60;;;;;;;-0.36;75.09;98144.66;29372;213;63009;-66
2022/01/21 02:06:53;;;;;;;0.60;0.60;;;;;;;-0.33;74.83;98141.56;29373;198;63005;-63
2022/01/21 02:07:24;;;;;;;0.60;0.60;;;;;;;-0.32;75.13;98143.22;29373;199;63009;-72
2022/01/21 02:07:59;;;;;;;0.60;0.60;;;;;;;-0.35;75.06;98140.97;29371;208;64004;-69
2022/01/21 02:08:33;;;;;;;0.60;0.60;;;;;;;-0.34;75.15;98139.94;29373;202;63009;-64
2022/01/21 02:09:05;;;;;;;0.70;0.70;;;;;;;-0.39;75.18;98148.53;29373;254;63004;-68
2022/01/21 02:09:36;;;;;;;0.60;0.60;;;;;;;-0.40;75.46;98140.72;29371;253;64009;-70
2022/01/21 02:10:08;;;;;;;0.60;0.60;;;;;;;-0.43;75.49;98141.09;29372;221;63004;-68
2022/01/21 02:10:42;;;;;;;1.00;1.00;;;;;;;-0.44;75.93;98144.78;29373;214;63008;-65
2022/01/21 02:11:14;;;;;;;0.60;0.60;;;;;;;-0.42;75.63;98145.41;29373;235;63005;-66
2022/01/21 02:11:46;;;;;;;0.60;0.60;;;;;;;-0.37;75.55;98151.00;29373;203;63009;-64
2022/01/21 02:12:17;;;;;;;0.60;0.60;;;;;;;-0.36;75.65;98145.47;29373;207;63016;-69
2022/01/21 02:12:49;;;;;;;0.60;0.60;;;;;;;-0.34;75.66;98145.25;29371;243;64009;-69
2022/01/21 02:13:30;;;;;;;0.70;0.70;;;;;;;-0.35;75.54;98144.44;29373;198;63005;-56
2022/01/21 02:14:07;;;;;;;0.85;0.85;;;;;;;-0.37;75.92;98143.00;29395;221;63009;-70
2022/01/21 02:14:47;;;;;;;1.23;1.23;;;;;;;-0.40;75.78;98140.72;29395;273;63005;-67
2022/01/21 02:15:23;;;;;;;0.60;0.60;;;;;;;-0.39;76.38;98139.72;29371;216;64009;-64
2022/01/21 02:16:17;;;;;;;0.60;0.60;;;;;;;-0.40;76.09;98140.72;29373;211;63004;-66
2022/01/21 02:21:38;;;;;;;0.60;0.60;;;;;;;-0.46;76.17;98136.97;29373;245;63005;-70
2022/01/21 02:22:11;;;;;;;0.60;0.60;;;;;;;-0.47;76.56;98138.00;29373;230;63009;-62
2022/01/21 02:22:47;;;;;;;0.70;0.70;;;;;;;-0.46;76.52;98133.50;29371;314;64004;-62
2022/01/21 02:23:18;;;;;;;0.60;0.60;;;;;;;-0.45;76.20;98132.47;29373;209;63009;-67
2022/01/21 02:23:54;;;;;;;0.60;0.60;;;;;;;-0.46;76.60;98133.50;29373;199;63004;-64
2022/01/21 02:24:35;;;;;;;0.70;0.70;;;;;;;-0.45;76.41;98129.81;29373;211;63009;-67
2022/01/21 02:25:18;;;;;;;0.80;0.80;;;;;;;-0.47;76.19;98139.84;29371;222;64004;-65
2022/01/21 02:25:50;;;;;;;1.60;1.60;;;;;;;-0.52;76.64;98137.75;29373;202;63008;-72
2022/01/21 02:26:21;;;;;;;0.60;0.60;;;;;;;-0.57;76.96;98134.81;29373;238;63005;-70
2022/01/21 02:26:53;;;;;;;0.60;0.60;;;;;;;-0.56;76.85;98135.66;29373;200;63009;-70
2022/01/21 02:27:25;;;;;;;0.60;0.60;;;;;;;-0.55;77.00;98134.63;29371;235;64005;-66
2022/01/21 02:27:58;;;;;;;0.60;0.60;;;;;;;-0.54;76.92;98138.94;29373;207;63025;-68
2022/01/21 02:28:29;;;;;;;0.60;0.60;;;;;;;-0.52;76.71;98139.59;29373;263;63005;-80
2022/01/21 02:29:03;;;;;;;0.60;0.60;;;;;;;-0.52;76.71;98139.59;29373;244;63009;-70
2022/01/21 02:29:44;;;;;;;0.75;0.75;;;;;;;-0.48;76.57;98138.19;29373;279;63005;-63
2022/01/21 02:30:20;;;;;;;0.68;0.68;;;;;;;-0.50;76.57;98141.03;29373;226;63025;-74
2022/01/21 02:30:56;;;;;;;0.60;0.60;;;;;;;-0.52;76.77;98136.91;29373;218;63004;-69
2022/01/21 02:31:28;;;;;;;0.60;0.60;;;;;;;-0.58;76.92;98135.00;29373;206;63009;-75
2022/01/21 02:32:00;;;;;;;0.60;0.60;;;;;;;-0.61;77.28;98138.06;29373;280;63004;-73
2022/01/21 02:32:32;;;;;;;0.60;0.60;;;;;;;-0.62;77.57;98141.75;29371;299;64009;-56
2022/01/21 02:33:03;;;;;;;0.60;0.60;;;;;;;-0.65;77.57;98142.94;29373;199;63004;-57
2022/01/21 02:33:37;;;;;;;0.60;0.60;;;;;;;-0.67;77.70;98137.81;29373;225;63009;-73
2022/01/21 02:34:09;;;;;;;0.60;0.60;;;;;;;-0.67;77.73;98140.47;29371;236;64005;-67
2022/01/21 02:34:41;;;;;;;0.60;0.60;;;;;;;-0.68;77.75;98133.50;29373;218;63009;-72
2022/01/21 02:35:14;;;;;;;0.60;0.60;;;;;;;-0.65;77.77;98142.13;29372;382;64005;-72
2022/01/21 02:35:45;;;;;;;0.60;0.60;;;;;;;-0.64;77.91;98133.09;29373;250;63009;-66
2022/01/21 02:36:16;;;;;;;0.60;0.60;;;;;;;-0.66;77.53;98135.97;29373;223;63005;-70
2022/01/21 02:36:47;;;;;;;0.60;0.60;;;;;;;-0.68;77.80;98144.16;29373;225;63009;-74
2022/01/21 02:37:21;;;;;;;0.60;0.60;;;;;;;-0.67;77.96;98140.47;29371;270;64005;-70
2022/01/21 02:37:52;;;;;;;0.73;0.73;;;;;;;-0.64;77.49;98133.94;29373;249;63009;-68
2022/01/21 02:38:24;;;;;;;1.25;1.25;;;;;;;-0.61;77.28;98140.72;29371;215;64004;-71
2022/01/21 02:38:55;;;;;;;0.60;0.60;;;;;;;-0.59;77.01;98141.34;29373;327;63009;-65
2022/01/21 02:39:26;;;;;;;0.60;0.60;;;;;;;-0.57;76.70;98142.81;29373;242;63004;-71
2022/01/21 02:39:57;;;;;;;0.60;0.60;;;;;;;-0.53;76.78;98145.94;29373;220;63009;-70
2022/01/21 02:40:28;;;;;;;0.60;0.60;;;;;;;-0.54;76.63;98145.09;29372;210;63004;-70
2022/01/21 02:40:59;;;;;;;0.60;0.60;;;;;;;-0.56;76.73;98146.31;29373;263;63008;-77
2022/01/21 02:41:31;;;;;;;0.60;0.60;;;;;;;-0.59;77.14;98152.03;29373;243;63011;-69
2022/01/21 02:42:06;;;;;;;0.60;0.60;;;;;;;-0.57;77.17;98148.16;29373;235;63009;-65
2022/01/21 02:42:38;;;;;;;0.60;0.60;;;;;;;-0.60;76.87;98150.38;29371;237;64005;-64
2022/01/21 02:43:11;;;;;;;0.60;0.60;;;;;;;-0.58;76.88;98148.34;29373;220;63009;-75
2022/01/21 02:43:43;;;;;;;0.77;0.77;;;;;;;-0.58;76.55;98138.50;29373;224;63005;-70
2022/01/21 02:44:17;;;;;;;0.60;0.60;;;;;;;-0.58;76.95;98143.00;29373;240;63009;-72
2022/01/21 02:44:48;;;;;;;0.60;0.60;;;;;;;-0.60;76.81;98147.72;29373;204;63005;-68
2022/01/21 02:45:19;;;;;;;0.60;0.60;;;;;;;-0.64;76.86;98143.78;29373;227;63009;-56
2022/01/21 02:45:51;;;;;;;0.60;0.60;;;;;;;-0.63;76.78;98153.41;29373;218;63004;-57
2022/01/21 02:46:23;;;;;;;0.60;0.60;;;;;;;-0.62;76.58;98152.41;29373;203;63009;-69
2022/01/21 02:46:59;;;;;;;0.60;0.60;;;;;;;-0.60;76.65;98145.88;29373;202;63018;-72
2022/01/21 02:47:31;;;;;;;0.60;0.60;;;;;;;-0.60;76.57;98145.03;29371;230;64009;-77
2022/01/21 02:48:04;;;;;;;0.60;0.60;;;;;;;-0.63;76.72;98140.09;29373;202;63004;-72
2022/01/21 02:48:37;;;;;;;0.60;0.60;;;;;;;-0.68;76.84;98149.47;29373;294;63009;-66
2022/01/21 02:49:11;;;;;;;0.60;0.60;;;;;;;-0.72;77.29;98153.56;29373;248;63005;-68
2022/01/21 02:49:43;;;;;;;0.60;0.60;;;;;;;-0.76;77.48;98146.97;29373;202;63009;-66
2022/01/21 02:50:16;;;;;;;0.60;0.60;;;;;;;-0.81;77.54;98144.03;29374;208;63005;-58
2022/01/21 02:50:47;;;;;;;0.60;0.60;;;;;;;-0.83;78.07;98148.75;29371;269;64009;-69
2022/01/21 02:51:19;;;;;;;0.60;0.60;;;;;;;-0.82;77.95;98147.72;29373;218;63005;-79
2022/01/21 02:51:55;;;;;;;0.60;0.60;;;;;;;-0.80;78.04;98140.38;29373;202;63009;-73
2022/01/21 02:52:29;;;;;;;0.60;0.60;;;;;;;-0.77;77.70;98145.31;29373;219;63005;-74
2022/01/21 02:54:41;;;;;;;0.60;0.60;;;;;;;-0.81;77.92;98144.03;29395;306;63009;-68
2022/01/21 02:55:12;;;;;;;0.60;0.60;;;;;;;-0.84;77.71;98139.09;29395;216;63004;-67
2022/01/21 02:55:44;;;;;;;0.70;0.70;;;;;;;-0.86;77.92;98146.44;29373;197;63008;-67
2022/01/21 02:56:17;;;;;;;0.60;0.60;;;;;;;-0.88;78.02;98143.16;29373;202;63009;-63
2022/01/21 02:56:49;;;;;;;0.60;0.60;;;;;;;-0.83;78.07;98146.06;29373;211;63009;-71
2022/01/21 02:57:20;;;;;;;0.60;0.60;;;;;;;-0.82;77.71;98147.72;29373;242;63005;-73
2022/01/21 02:57:52;;;;;;;0.60;0.60;;;;;;;-0.79;77.65;98159.84;29373;242;63009;-66
2022/01/21 02:58:24;;;;;;;0.60;0.60;;;;;;;-0.83;77.64;98151.41;29371;208;64005;-69
2022/01/21 02:58:56;;;;;;;0.60;0.60;;;;;;;-0.80;77.86;98156.34;29373;263;63009;-80
2022/01/21 02:59:28;;;;;;;0.60;0.60;;;;;;;-0.71;77.18;98163.22;29373;237;63005;-74
2022/01/21 02:59:59;;;;;;;0.60;0.60;;;;;;;-0.69;77.25;98161.16;29373;196;63009;-73
2022/01/21 03:00:30;;;;;;;0.60;0.60;;;;;;;-0.65;76.90;98166.09;29373;219;63004;-65
2022/01/21 03:01:03;;;;;;;0.60;0.60;;;;;;;-0.61;76.80;98164.72;29373;222;63009;-66
2022/01/21 03:01:36;;;;;;;0.70;0.70;;;;;;;-0.58;76.30;98165.16;29373;214;63004;-70
2022/01/21 03:02:07;;;;;;;0.60;0.60;;;;;;;-0.59;76.63;98170.69;29373;231;63008;-69
2022/01/21 03:02:38;;;;;;;0.70;0.70;;;;;;;-0.58;76.29;98175.00;29371;223;64004;-77
2022/01/21 03:03:10;;;;;;;0.60;0.60;;;;;;;-0.57;76.61;98176.66;29373;231;63008;-68
2022/01/21 03:03:43;;;;;;;0.60;0.60;;;;;;;-0.57;76.30;98171.31;29373;230;63005;-68
2022/01/21 03:04:21;;;;;;;0.60;0.60;;;;;;;-0.59;76.57;98173.34;29373;230;63009;-69
2022/01/21 03:05:02;;;;;;;0.60;0.60;;;;;;;-0.57;76.42;98158.00;29373;202;63005;-75
2022/01/21 03:05:38;;;;;;;0.70;0.70;;;;;;;-0.55;76.55;98163.97;29395;212;63009;-70
2022/01/21 03:06:15;;;;;;;0.70;0.70;;;;;;;-0.55;76.20;98169.28;29371;249;64005;-62
2022/01/21 03:06:46;;;;;;;0.70;0.70;;;;;;;-0.58;76.39;98169.66;29373;251;63009;-67
2022/01/21 03:07:20;;;;;;;0.77;0.77;;;;;;;-0.51;76.00;98173.22;29373;247;63004;-69
2022/01/21 03:07:52;;;;;;;0.70;0.70;;;;;;;-0.52;75.90;98166.25;29373;273;63009;-72
2022/01/21 03:08:23;;;;;;;0.70;0.70;;;;;;;-0.51;76.05;98165.22;29373;197;63008;-69
2022/01/21 03:08:57;;;;;;;0.70;0.70;;;;;;;-0.52;76.13;98166.25;29373;229;63009;-70
2022/01/21 03:09:28;;;;;;;0.60;0.60;;;;;;;-0.50;75.88;98169.53;29373;203;63004;-75
2022/01/21 03:10:00;;;;;;;0.65;0.65;;;;;;;-0.54;76.26;98176.28;29373;244;63008;-71
2022/01/21 03:10:31;;;;;;;0.70;0.70;;;;;;;-0.54;76.11;98181.59;29373;229;63005;-68
2022/01/21 03:11:04;;;;;;;0.60;0.60;;;;;;;-0.55;76.24;98179.94;29371;220;64009;-74
2022/01/21 03:11:36;;;;;;;0.65;0.65;;;;;;;-0.55;76.45;98171.97;29373;286;63005;-69
2022/01/21 03:12:08;;;;;;;0.70;0.70;;;;;;;-0.53;76.27;98175.25;29373;209;63009;-74
2022/01/21 03:12:39;;;;;;;0.80;0.80;;;;;;;-0.54;75.96;98171.75;29373;204;63005;-77
2022/01/21 03:13:11;;;;;;;0.60;0.60;;;;;;;-0.53;76.26;98175.25;29373;240;63009;-75
2022/01/21 03:13:43;;;;;;;0.75;0.75;;;;;;;-0.51;75.96;98165.22;29373;203;63005;-68
2022/01/21 03:14:14;;;;;;;0.70;0.70;;;;;;;-0.48;75.63;98165.69;29373;216;63009;-70
2022/01/21 03:14:45;;;;;;;0.70;0.70;;;;;;;-0.45;75.53;98161.81;29373;249;63004;-68
2022/01/21 03:15:17;;;;;;;0.60;0.60;;;;;;;-0.47;75.99;98163.84;29373;220;63012;-77
2022/01/21 03:15:52;;;;;;;0.60;0.60;;;;;;;-0.49;75.70;98163.19;29373;244;63004;-71
2022/01/21 03:16:24;;;;;;;0.60;0.60;;;;;;;-0.50;76.01;98166.88;29371;232;64009;-70